Time;durP1;ratioP1;P1;durP2;ratioP2;P2;SDS_P1;SDS_P2;PMS_P1;PMS_P2;Temp;Humidity;BMP_temperature;BMP_pressure;BME280_temperature;BME280_humidity;BME280_pressure;Samples;Min_cycle;Max_cycle;Signal;HPM_P1;HPM_P2
2021/12/31 00:01:17;;;;;;;19.77;10.55;;;-5.00;98.40;;;;;;4990210;28;20033;-77
2021/12/31 00:03:43;;;;;;;23.25;13.55;;;-5.00;98.20;;;;;;4989256;28;20097;-76
2021/12/31 00:06:09;;;;;;;26.25;13.77;;;-5.10;98.30;;;;;;4994607;28;20084;-76
2021/12/31 00:08:35;;;;;;;30.20;13.20;;;-5.00;98.40;;;;;;4994313;28;20045;-78
2021/12/31 00:11:02;;;;;;;27.33;16.10;;;-5.00;98.20;;;;;;4994092;28;20019;-77
2021/12/31 00:13:29;;;;;;;24.95;13.95;;;-5.10;98.40;;;;;;4994353;28;20033;-77
2021/12/31 00:15:55;;;;;;;27.63;14.97;;;-5.00;98.60;;;;;;4989478;28;20046;-77
2021/12/31 00:18:21;;;;;;;21.92;12.70;;;-5.00;98.70;;;;;;4984224;28;20300;-77
2021/12/31 00:20:47;;;;;;;24.55;13.55;;;-4.90;98.80;;;;;;4994181;28;20361;-78
2021/12/31 00:23:15;;;;;;;18.50;12.65;;;-4.90;98.70;;;;;;4994398;28;20027;-78
2021/12/31 00:25:42;;;;;;;24.38;13.48;;;-4.80;98.70;;;;;;4994090;28;20029;-77
2021/12/31 00:28:10;;;;;;;24.40;14.00;;;-4.80;98.70;;;;;;4994024;28;20030;-77
2021/12/31 00:30:37;;;;;;;24.58;14.70;;;-4.80;98.70;;;;;;4995301;28;20022;-78
2021/12/31 00:33:03;;;;;;;20.95;11.82;;;-4.70;98.70;;;;;;4988107;28;20027;-76
2021/12/31 00:35:32;;;;;;;24.90;15.70;;;-4.70;98.60;;;;;;4986521;28;20037;-78
2021/12/31 00:37:58;;;;;;;22.40;14.32;;;-4.70;98.60;;;;;;4993529;28;20034;-76
2021/12/31 00:40:26;;;;;;;27.80;14.05;;;-4.70;98.60;;;;;;4994052;28;20030;-77
2021/12/31 00:42:52;;;;;;;;;;;-4.60;98.50;;;;;;4990533;28;20015;-77
2021/12/31 00:45:20;;;;;;;27.63;16.30;;;-4.60;98.50;;;;;;4983218;28;19905;-76
2021/12/31 00:47:47;;;;;;;27.15;15.27;;;-4.60;98.40;;;;;;4993669;28;20019;-78
2021/12/31 00:50:14;;;;;;;24.58;13.85;;;-4.60;98.40;;;;;;4990304;28;20061;-77
2021/12/31 00:52:40;;;;;;;18.67;10.02;;;-4.50;98.40;;;;;;4987451;28;20034;-76
2021/12/31 00:55:08;;;;;;;22.38;13.75;;;-4.50;98.30;;;;;;4993878;28;20033;-77
2021/12/31 00:57:34;;;;;;;26.08;13.95;;;-4.60;98.10;;;;;;4993457;28;20073;-77
2021/12/31 01:00:01;;;;;;;27.23;15.20;;;-4.60;98.20;;;;;;4993537;28;20022;-77
2021/12/31 01:02:28;;;;;;;24.55;14.27;;;-4.60;98.40;;;;;;4993391;28;20031;-77
2021/12/31 01:04:55;;;;;;;26.67;15.93;;;-4.60;98.30;;;;;;4993137;28;20034;-77
2021/12/31 01:07:20;;;;;;;21.17;14.07;;;-4.60;98.40;;;;;;4993393;28;20041;-77
2021/12/31 01:09:46;;;;;;;25.40;13.55;;;-4.60;98.40;;;;;;4993201;28;20026;-77
2021/12/31 01:12:13;;;;;;;21.38;13.57;;;-4.50;98.50;;;;;;4993430;28;20037;-76
2021/12/31 01:14:52;;;;;;;22.70;12.73;;;-4.50;98.40;;;;;;4993625;28;20022;-76
2021/12/31 01:17:24;;;;;;;23.48;14.90;;;-4.50;98.30;;;;;;4993229;28;20069;-77
2021/12/31 01:19:50;;;;;;;25.60;15.60;;;-4.40;98.20;;;;;;4993300;28;20038;-79
2021/12/31 01:22:19;;;;;;;24.03;14.47;;;-4.40;98.10;;;;;;4993099;28;20062;-78
2021/12/31 01:24:45;;;;;;;24.95;13.70;;;-4.40;97.90;;;;;;4993346;28;20045;-77
2021/12/31 01:27:12;;;;;;;25.63;14.80;;;-4.40;97.80;;;;;;4991651;28;20068;-77
2021/12/31 01:29:38;;;;;;;29.20;14.75;;;-4.40;97.70;;;;;;4993062;28;20023;-78
2021/12/31 01:32:04;;;;;;;23.02;13.55;;;-4.40;97.80;;;;;;4992891;28;20030;-78
2021/12/31 01:34:30;;;;;;;25.65;16.15;;;-4.50;97.90;;;;;;4992880;28;20030;-77
2021/12/31 01:36:56;;;;;;;22.85;14.65;;;-4.40;98.10;;;;;;4993498;28;20435;-78
2021/12/31 01:39:22;;;;;;;24.65;13.68;;;-4.40;98.10;;;;;;4993659;28;20050;-77
2021/12/31 01:41:48;;;;;;;23.00;12.75;;;-4.40;98.10;;;;;;4993365;28;20018;-77
2021/12/31 01:44:14;;;;;;;25.52;13.23;;;-4.40;98.00;;;;;;4993060;28;20026;-77
2021/12/31 01:46:57;;;;;;;21.90;13.60;;;-4.40;97.80;;;;;;4991583;28;20037;-78
2021/12/31 01:49:27;;;;;;;22.23;12.82;;;-4.50;97.80;;;;;;4992901;28;20027;-78
2021/12/31 01:51:53;;;;;;;26.67;14.50;;;-4.50;97.90;;;;;;4993144;28;20031;-77
2021/12/31 01:54:20;;;;;;;26.33;14.10;;;-4.60;97.90;;;;;;4992755;28;20054;-78
2021/12/31 01:56:48;;;;;;;24.67;13.02;;;-4.60;98.00;;;;;;4992989;28;20027;-78
2021/12/31 01:59:15;;;;;;;20.65;13.68;;;-4.60;98.10;;;;;;4992671;28;20038;-77
2021/12/31 02:01:41;;;;;;;;;;;-4.60;98.20;;;;;;4997863;28;20471;-76
2021/12/31 02:04:07;;;;;;;22.02;12.48;;;-4.60;98.20;;;;;;4996689;28;19917;-78
2021/12/31 02:06:34;;;;;;;25.48;15.43;;;-4.60;98.10;;;;;;5004696;28;20026;-77
2021/12/31 02:09:03;;;;;;;23.83;14.80;;;-4.60;98.30;;;;;;4996395;28;20113;-79
2021/12/31 02:11:29;;;;;;;25.25;14.85;;;-4.60;98.40;;;;;;4992837;28;20109;-78
2021/12/31 02:13:55;;;;;;;31.10;16.10;;;-4.50;98.50;;;;;;4992692;28;20113;-77
2021/12/31 02:16:21;;;;;;;28.08;14.98;;;-4.40;98.40;;;;;;4993962;28;20101;-78
2021/12/31 02:18:47;;;;;;;24.60;14.65;;;-4.40;98.20;;;;;;4991311;28;20130;-77
2021/12/31 02:21:14;;;;;;;25.95;13.27;;;-4.50;98.10;;;;;;4992544;28;20033;-77
2021/12/31 02:23:45;;;;;;;25.85;13.32;;;-4.60;98.00;;;;;;4992929;28;20038;-77
2021/12/31 02:26:13;;;;;;;21.65;12.35;;;-4.70;97.60;;;;;;4992228;28;20026;-75
2021/12/31 02:28:39;;;;;;;32.60;14.75;;;-4.80;97.70;;;;;;4992406;28;20178;-77
2021/12/31 02:31:05;;;;;;;21.85;9.88;;;-4.90;98.00;;;;;;4992764;28;20030;-75
2021/12/31 02:33:32;;;;;;;20.93;12.00;;;-4.90;98.20;;;;;;4993044;28;20085;-76
2021/12/31 02:36:00;;;;;;;20.17;12.52;;;-4.90;98.40;;;;;;4994341;28;20376;-76
2021/12/31 02:38:27;;;;;;;24.92;13.18;;;-4.90;98.20;;;;;;4992572;28;20065;-76
2021/12/31 02:40:53;;;;;;;17.07;8.53;;;-4.90;98.30;;;;;;4994380;28;20029;-77
2021/12/31 02:43:19;;;;;;;26.45;15.35;;;-4.90;98.40;;;;;;4993248;28;20026;-76
2021/12/31 02:45:45;;;;;;;29.52;15.30;;;-5.00;98.50;;;;;;4993399;28;20150;-76
2021/12/31 02:48:11;;;;;;;28.83;14.18;;;-4.90;98.60;;;;;;4993013;28;20108;-77
2021/12/31 02:50:40;;;;;;;25.40;14.02;;;-4.80;98.80;;;;;;4992278;28;20041;-77
2021/12/31 02:53:13;;;;;;;28.05;13.80;;;-4.80;98.90;;;;;;4992132;28;20105;-76
2021/12/31 02:55:41;;;;;;;26.65;14.00;;;-4.70;98.90;;;;;;4992900;28;20426;-77
2021/12/31 02:58:07;;;;;;;26.52;15.10;;;-4.70;98.70;;;;;;4993829;28;20442;-76
2021/12/31 03:00:37;;;;;;;21.20;9.63;;;-4.70;98.70;;;;;;4992663;28;20014;-77
2021/12/31 03:03:06;;;;;;;14.48;9.23;;;-4.70;98.50;;;;;;4992389;28;20034;-77
2021/12/31 03:05:34;;;;;;;28.88;14.55;;;-4.70;98.40;;;;;;4992159;28;20018;-77
2021/12/31 03:08:02;;;;;;;24.67;14.45;;;-4.80;98.20;;;;;;4992240;28;20035;-77
2021/12/31 03:10:29;;;;;;;20.75;9.48;;;-4.90;98.30;;;;;;5007180;28;20022;-77
2021/12/31 03:12:57;;;;;;;23.05;12.52;;;-4.90;98.10;;;;;;4995549;28;20030;-77
2021/12/31 03:15:24;;;;;;;21.05;12.05;;;-5.00;98.10;;;;;;4997921;28;20391;-80
2021/12/31 03:17:51;;;;;;;27.02;13.27;;;-5.10;98.30;;;;;;4999206;28;20193;-77
2021/12/31 03:20:26;;;;;;;26.83;13.73;;;-5.10;98.60;;;;;;4997982;28;20088;-79
2021/12/31 03:22:52;;;;;;;25.15;15.20;;;-5.10;98.70;;;;;;4997698;28;20039;-77
2021/12/31 03:25:18;;;;;;;28.67;14.32;;;-5.10;98.80;;;;;;4998318;28;20027;-78
2021/12/31 03:27:44;;;;;;;27.77;16.27;;;-5.00;99.00;;;;;;4997360;28;20058;-77
2021/12/31 03:30:11;;;;;;;25.25;15.13;;;-4.90;99.10;;;;;;4997773;28;20022;-78
2021/12/31 03:32:37;;;;;;;28.48;14.13;;;-4.90;99.20;;;;;;5000810;28;20022;-78
2021/12/31 03:35:04;;;;;;;23.15;13.77;;;-4.80;99.20;;;;;;4999452;28;20026;-77
2021/12/31 03:37:30;;;;;;;19.95;11.20;;;-4.70;99.10;;;;;;4996010;28;20039;-76
2021/12/31 03:39:56;;;;;;;28.20;15.18;;;-4.70;99.10;;;;;;4995690;28;20050;-79
2021/12/31 03:42:22;;;;;;;20.98;11.73;;;-4.70;99.10;;;;;;5004928;28;20085;-77
2021/12/31 03:44:48;;;;;;;25.75;11.95;;;-4.70;98.70;;;;;;4995960;28;20031;-76
2021/12/31 03:47:13;;;;;;;25.42;10.88;;;-4.80;98.70;;;;;;4996338;28;20022;-77
2021/12/31 03:49:39;;;;;;;29.27;16.70;;;-4.90;98.90;;;;;;4996476;28;20034;-78
2021/12/31 03:52:06;;;;;;;34.40;16.58;;;-5.00;99.10;;;;;;4995917;28;20026;-78
2021/12/31 03:54:31;;;;;;;22.98;13.65;;;-5.00;99.40;;;;;;4995330;28;20520;-76
2021/12/31 03:56:57;;;;;;;23.50;13.32;;;-4.90;99.70;;;;;;4994873;28;20149;-77
2021/12/31 03:59:23;;;;;;;26.15;15.02;;;-4.90;99.60;;;;;;4995054;28;20110;-76
2021/12/31 04:01:49;;;;;;;24.02;12.65;;;-4.90;99.80;;;;;;4995599;28;20022;-77
2021/12/31 04:04:14;;;;;;;22.73;13.13;;;-4.90;99.70;;;;;;4994927;28;20030;-77
2021/12/31 04:06:40;;;;;;;24.30;13.23;;;-4.90;99.70;;;;;;4994841;28;20030;-78
2021/12/31 04:09:07;;;;;;;23.23;13.35;;;-5.00;99.80;;;;;;4994876;28;20130;-78
2021/12/31 04:11:33;;;;;;;17.60;11.45;;;-5.00;99.90;;;;;;4993609;28;20026;-76
2021/12/31 04:13:58;;;;;;;24.83;14.27;;;-5.00;99.90;;;;;;4994907;28;20368;-78
2021/12/31 04:16:24;;;;;;;28.23;15.93;;;-5.00;99.90;;;;;;4993379;28;20469;-77
2021/12/31 04:18:50;;;;;;;14.95;9.55;;;-5.00;99.90;;;;;;4994870;28;20129;-76
2021/12/31 04:21:18;;;;;;;28.50;13.80;;;-5.00;99.90;;;;;;4993334;28;20061;-77
2021/12/31 04:23:49;;;;;;;31.83;14.15;;;-5.00;99.90;;;;;;4994082;28;20029;-77
2021/12/31 04:26:16;;;;;;;33.70;17.30;;;-5.00;99.90;;;;;;4993927;28;20045;-78
2021/12/31 04:28:43;;;;;;;32.60;17.90;;;-4.90;99.90;;;;;;5009155;28;20031;-78
2021/12/31 04:31:09;;;;;;;24.48;12.25;;;-4.90;99.90;;;;;;4994228;28;20030;-79
2021/12/31 04:33:34;;;;;;;33.28;16.67;;;-4.80;99.90;;;;;;4994118;28;20034;-78
2021/12/31 04:36:00;;;;;;;27.67;16.25;;;-4.90;99.90;;;;;;4994215;28;20065;-79
2021/12/31 04:38:26;;;;;;;30.40;18.15;;;-4.80;99.90;;;;;;4993414;28;20113;-77
2021/12/31 04:40:52;;;;;;;24.25;12.63;;;-4.80;99.90;;;;;;4994815;28;20055;-76
2021/12/31 04:43:18;;;;;;;31.98;16.55;;;-4.70;99.90;;;;;;4993785;28;20026;-77
2021/12/31 04:45:43;;;;;;;28.90;16.77;;;-4.70;99.90;;;;;;4994086;28;20026;-77
2021/12/31 04:48:09;;;;;;;32.63;18.45;;;-4.60;99.90;;;;;;4994021;28;20018;-77
2021/12/31 04:50:35;;;;;;;24.83;14.05;;;-4.60;99.90;;;;;;4994153;28;20058;-76
2021/12/31 04:53:04;;;;;;;32.92;16.70;;;-4.60;99.90;;;;;;4995118;28;20116;-76
2021/12/31 04:55:30;;;;;;;33.58;16.92;;;-4.60;99.90;;;;;;4994968;28;20491;-77
2021/12/31 04:57:56;;;;;;;29.15;16.65;;;-4.50;99.90;;;;;;4997318;28;20045;-78
2021/12/31 05:00:22;;;;;;;28.95;14.85;;;-4.60;99.90;;;;;;4997289;28;20026;-78
2021/12/31 05:02:47;;;;;;;28.98;16.85;;;-4.50;99.90;;;;;;4993995;28;20018;-77
2021/12/31 05:05:13;;;;;;;34.45;17.67;;;-4.50;99.90;;;;;;5001039;28;20388;-75
2021/12/31 05:07:39;;;;;;;31.42;16.23;;;-4.50;99.90;;;;;;4979102;28;20030;-76
2021/12/31 05:10:06;;;;;;;31.58;15.43;;;-4.50;99.80;;;;;;4974495;28;20112;-77
2021/12/31 05:12:34;;;;;;;31.38;17.00;;;-4.50;99.70;;;;;;4973986;28;20069;-77
2021/12/31 05:15:05;;;;;;;15.43;9.38;;;-4.50;99.60;;;;;;4973990;28;20039;-77
2021/12/31 05:17:31;;;;;;;21.80;10.40;;;-4.60;99.30;;;;;;4973944;28;20074;-80
2021/12/31 05:19:57;;;;;;;24.30;16.52;;;-4.70;99.20;;;;;;4973962;28;20452;-77
2021/12/31 05:22:23;;;;;;;29.83;17.40;;;-4.80;99.20;;;;;;4973906;28;20385;-77
2021/12/31 05:24:48;;;;;;;17.73;9.82;;;-4.80;99.40;;;;;;4983421;28;20014;-78
2021/12/31 05:27:14;;;;;;;36.13;15.77;;;-4.80;99.60;;;;;;4991703;28;20026;-78
2021/12/31 05:29:40;;;;;;;24.73;14.90;;;-4.80;99.40;;;;;;4992969;28;20107;-79
2021/12/31 05:32:06;;;;;;;21.90;11.90;;;-4.80;99.40;;;;;;4976265;28;20491;-77
2021/12/31 05:34:32;;;;;;;19.67;12.68;;;-4.80;99.40;;;;;;4972926;28;20102;-76
2021/12/31 05:36:58;;;;;;;21.98;11.93;;;-4.80;99.50;;;;;;4973327;28;20493;-79
2021/12/31 05:39:25;;;;;;;27.17;14.10;;;-4.80;99.60;;;;;;4973198;28;20058;-77
2021/12/31 05:41:51;;;;;;;25.08;13.07;;;-4.80;99.70;;;;;;4978499;28;20023;-78
2021/12/31 05:44:17;;;;;;;22.67;12.85;;;-4.80;99.70;;;;;;4993042;28;20030;-76
2021/12/31 05:46:47;;;;;;;28.05;17.95;;;-4.70;99.90;;;;;;4994187;28;20415;-78
2021/12/31 05:49:14;;;;;;;27.63;15.30;;;-4.70;99.90;;;;;;4988402;28;20023;-78
2021/12/31 05:51:39;;;;;;;36.88;20.88;;;-4.70;99.90;;;;;;4988222;28;20030;-78
2021/12/31 05:54:05;;;;;;;44.38;18.35;;;-4.60;99.90;;;;;;4973267;28;20030;-76
2021/12/31 05:56:31;;;;;;;28.35;15.57;;;-4.60;99.90;;;;;;4972025;28;20477;-79
2021/12/31 05:58:57;;;;;;;36.00;19.13;;;-4.50;99.90;;;;;;4973188;28;20101;-76
2021/12/31 06:01:23;;;;;;;37.17;17.38;;;-4.50;99.80;;;;;;4973163;28;20086;-78
2021/12/31 06:03:48;;;;;;;37.67;19.17;;;-4.50;99.80;;;;;;4973019;28;20027;-77
2021/12/31 06:06:14;;;;;;;31.63;18.35;;;-4.50;99.80;;;;;;4973184;28;20130;-78
2021/12/31 06:08:40;;;;;;;36.35;18.67;;;-4.50;99.80;;;;;;4973063;28;20038;-79
2021/12/31 06:11:07;;;;;;;33.25;17.88;;;-4.50;99.80;;;;;;4973457;28;20027;-76
2021/12/31 06:13:33;;;;;;;42.58;21.20;;;-4.50;99.80;;;;;;4973054;28;20033;-78
2021/12/31 06:15:59;;;;;;;40.33;17.77;;;-4.50;99.80;;;;;;4973591;28;20098;-78
2021/12/31 06:18:27;;;;;;;37.63;19.60;;;-4.50;99.80;;;;;;4973226;28;20480;-79
2021/12/31 06:20:53;;;;;;;38.38;20.67;;;-4.50;99.70;;;;;;4988432;28;20041;-77
2021/12/31 06:23:19;;;;;;;28.85;15.30;;;-4.50;99.80;;;;;;4978786;28;20022;-77
2021/12/31 06:25:45;;;;;;;32.33;20.00;;;-4.50;99.60;;;;;;4992719;28;20153;-77
2021/12/31 06:28:11;;;;;;;33.33;16.38;;;-4.50;99.80;;;;;;4992581;28;20030;-77
2021/12/31 06:30:37;;;;;;;34.83;16.23;;;-4.40;99.70;;;;;;4992737;28;20019;-78
2021/12/31 06:33:03;;;;;;;26.40;15.82;;;-4.40;99.60;;;;;;4992549;28;20495;-77
2021/12/31 06:35:29;;;;;;;21.27;13.63;;;-4.40;99.60;;;;;;4992719;28;20116;-78
2021/12/31 06:37:57;;;;;;;31.70;18.52;;;-4.40;99.50;;;;;;4991919;28;20448;-78
2021/12/31 06:40:23;;;;;;;28.63;16.15;;;-4.40;99.60;;;;;;4991614;28;20554;-79
2021/12/31 06:42:49;;;;;;;24.48;14.02;;;-4.30;99.80;;;;;;4993709;28;20061;-79
2021/12/31 06:45:15;;;;;;;29.27;17.20;;;-4.20;99.90;;;;;;4993816;28;20061;-78
2021/12/31 06:47:41;;;;;;;20.10;11.57;;;-4.20;99.80;;;;;;4996140;28;20483;-77
2021/12/31 06:50:07;;;;;;;23.27;14.05;;;-4.10;99.70;;;;;;5011588;28;20054;-79
2021/12/31 06:52:38;;;;;;;22.60;12.73;;;-4.10;99.70;;;;;;4996043;28;20374;-77
2021/12/31 06:55:08;;;;;;;24.52;12.32;;;-4.10;99.60;;;;;;4996259;28;20491;-78
2021/12/31 06:57:35;;;;;;;22.60;11.88;;;-4.00;99.60;;;;;;4996072;28;20030;-78
2021/12/31 07:00:03;;;;;;;27.05;14.40;;;-4.10;99.00;;;;;;4995929;28;20496;-78
2021/12/31 07:02:29;;;;;;;24.10;12.82;;;-4.20;99.00;;;;;;4996470;28;20479;-78
2021/12/31 07:04:54;;;;;;;24.90;13.10;;;-4.30;98.90;;;;;;5001250;28;20121;-77
2021/12/31 07:07:20;;;;;;;17.13;9.77;;;-4.30;99.10;;;;;;4999795;28;20038;-78
2021/12/31 07:09:46;;;;;;;23.67;13.73;;;-4.30;99.10;;;;;;4995511;28;20030;-78
2021/12/31 07:12:11;;;;;;;19.88;11.10;;;-4.30;99.20;;;;;;4995812;28;20527;-76
2021/12/31 07:14:37;;;;;;;16.27;9.63;;;-4.30;99.20;;;;;;4995837;28;20369;-76
2021/12/31 07:17:03;;;;;;;28.50;13.77;;;-4.30;99.30;;;;;;4995315;28;20033;-77
2021/12/31 07:19:29;;;;;;;28.40;15.90;;;-4.30;99.40;;;;;;4996475;28;20534;-79
2021/12/31 07:21:55;;;;;;;32.05;15.50;;;-4.30;99.60;;;;;;4999599;28;20120;-77
2021/12/31 07:24:21;;;;;;;28.55;15.18;;;-4.20;99.60;;;;;;5002970;28;20387;-77
2021/12/31 07:26:46;;;;;;;23.00;11.68;;;-4.20;99.40;;;;;;4995938;28;20030;-78
2021/12/31 07:29:12;;;;;;;30.60;15.90;;;-4.10;99.50;;;;;;4994298;28;20031;-77
2021/12/31 07:31:38;;;;;;;24.00;14.70;;;-4.10;99.50;;;;;;4996550;28;20030;-78
2021/12/31 07:34:03;;;;;;;29.50;16.23;;;-4.00;99.60;;;;;;4995360;28;20027;-78
2021/12/31 07:36:32;;;;;;;35.65;18.67;;;-4.00;99.60;;;;;;4995097;28;20045;-77
2021/12/31 07:39:01;;;;;;;32.58;18.40;;;-4.00;99.40;;;;;;4994847;28;20050;-77
2021/12/31 07:41:27;;;;;;;36.38;19.00;;;-3.90;99.50;;;;;;4994050;28;20027;-79
2021/12/31 07:43:53;;;;;;;33.95;19.00;;;-3.90;99.50;;;;;;4995528;28;20034;-78
2021/12/31 07:46:19;;;;;;;34.33;18.27;;;-3.90;99.40;;;;;;4994807;28;20018;-76
2021/12/31 07:48:45;;;;;;;36.20;20.17;;;-3.90;99.40;;;;;;4994890;28;20038;-76
2021/12/31 07:51:11;;;;;;;37.00;19.13;;;-3.80;99.50;;;;;;4995020;28;20472;-76
2021/12/31 07:53:37;;;;;;;32.47;17.85;;;-3.80;99.40;;;;;;4993598;28;20033;-77
2021/12/31 07:56:03;;;;;;;36.60;17.70;;;-3.80;99.30;;;;;;4994864;28;20031;-77
2021/12/31 07:58:28;;;;;;;33.38;18.83;;;-3.80;99.20;;;;;;4995339;28;20034;-78
2021/12/31 08:00:54;;;;;;;29.85;17.13;;;-3.80;99.10;;;;;;4996342;28;20503;-77
2021/12/31 08:03:20;;;;;;;32.38;16.73;;;-3.90;99.00;;;;;;4997362;28;20034;-78
2021/12/31 08:05:46;;;;;;;38.83;18.70;;;-3.90;99.00;;;;;;4998474;28;20507;-78
2021/12/31 08:08:12;;;;;;;39.67;19.08;;;-3.90;99.00;;;;;;4995200;28;20026;-77
2021/12/31 08:10:39;;;;;;;31.73;17.85;;;-3.90;99.40;;;;;;4995095;28;20030;-77
2021/12/31 08:13:04;;;;;;;36.55;18.38;;;-3.90;99.20;;;;;;4994516;28;20419;-76
2021/12/31 08:15:30;;;;;;;36.80;19.83;;;-3.80;99.40;;;;;;4994886;28;20045;-75
2021/12/31 08:17:57;;;;;;;33.95;17.98;;;-3.80;99.20;;;;;;4992909;28;20034;-77
2021/12/31 08:20:25;;;;;;;31.25;17.65;;;-3.70;99.40;;;;;;4995037;28;20109;-78
2021/12/31 08:22:52;;;;;;;26.02;13.85;;;-3.60;99.40;;;;;;4995686;28;20027;-77
2021/12/31 08:25:17;;;;;;;36.03;17.90;;;-3.60;99.20;;;;;;4993011;28;20452;-78
2021/12/31 08:27:43;;;;;;;31.50;16.15;;;-3.60;99.00;;;;;;4994238;28;20030;-77
2021/12/31 08:30:10;;;;;;;23.42;12.70;;;-3.60;99.10;;;;;;4993943;28;20022;-80
2021/12/31 08:32:37;;;;;;;22.73;11.65;;;-3.50;99.00;;;;;;4994216;28;20395;-78
2021/12/31 08:35:04;;;;;;;32.10;18.08;;;-3.60;98.70;;;;;;4994179;28;20097;-77
2021/12/31 08:37:30;;;;;;;25.33;13.43;;;-3.60;98.70;;;;;;4994400;28;20030;-78
2021/12/31 08:39:57;;;;;;;27.35;14.60;;;-3.60;98.60;;;;;;4994517;28;20042;-77
2021/12/31 08:42:23;;;;;;;22.98;13.73;;;-3.60;98.60;;;;;;4994854;28;20022;-80
2021/12/31 08:44:49;;;;;;;26.52;15.45;;;-3.60;98.60;;;;;;4990108;28;20372;-78
2021/12/31 08:47:15;;;;;;;24.30;14.00;;;-3.70;98.50;;;;;;4972852;28;20041;-78
2021/12/31 08:49:42;;;;;;;21.63;12.98;;;-3.60;98.60;;;;;;4974605;28;20511;-78
2021/12/31 08:52:08;;;;;;;16.95;8.52;;;-3.60;98.60;;;;;;4976710;28;20033;-77
2021/12/31 08:54:34;;;;;;;25.45;13.60;;;-3.60;98.20;;;;;;4987578;28;20134;-78
2021/12/31 08:57:00;;;;;;;29.08;15.00;;;-3.70;98.20;;;;;;4974097;28;20035;-77
2021/12/31 08:59:27;;;;;;;27.42;15.27;;;-3.70;98.30;;;;;;4973521;28;20035;-77
2021/12/31 09:01:52;;;;;;;19.70;9.53;;;-3.70;98.30;;;;;;4994164;28;20026;-79
2021/12/31 09:04:18;;;;;;;28.90;16.98;;;-3.70;98.10;;;;;;4982866;28;20331;-77
2021/12/31 09:06:44;;;;;;;20.40;12.73;;;-3.70;98.30;;;;;;4993466;28;20015;-77
2021/12/31 09:09:10;;;;;;;30.20;16.67;;;-3.70;98.50;;;;;;4989262;28;20037;-79
2021/12/31 09:11:36;;;;;;;31.33;15.02;;;-3.70;98.60;;;;;;4993479;28;20030;-78
2021/12/31 09:14:02;;;;;;;30.85;14.27;;;-3.60;98.80;;;;;;4993268;28;20396;-76
2021/12/31 09:16:28;;;;;;;26.05;14.43;;;-3.60;98.20;;;;;;4993224;28;20383;-77
2021/12/31 09:18:54;;;;;;;23.38;11.13;;;-3.60;98.10;;;;;;4992952;28;20038;-79
2021/12/31 09:21:22;;;;;;;19.33;10.82;;;-3.70;98.10;;;;;;4989216;28;20029;-77
2021/12/31 09:23:48;;;;;;;33.53;16.65;;;-3.70;98.10;;;;;;4993474;28;20062;-78
2021/12/31 09:26:17;;;;;;;28.90;18.65;;;-3.70;98.40;;;;;;4993188;28;20049;-77
2021/12/31 09:28:43;;;;;;;35.25;17.83;;;-3.70;98.40;;;;;;4993172;28;20022;-78
2021/12/31 09:31:13;;;;;;;27.70;15.20;;;-3.60;98.60;;;;;;4992696;28;20030;-78
2021/12/31 09:33:39;;;;;;;29.17;13.88;;;-3.50;98.60;;;;;;4992983;28;20022;-77
2021/12/31 09:36:05;;;;;;;30.20;15.15;;;-3.50;98.40;;;;;;4993208;28;20026;-76
2021/12/31 09:38:31;;;;;;;25.75;14.15;;;-3.60;98.40;;;;;;4992667;28;20049;-78
2021/12/31 09:40:57;;;;;;;28.23;15.25;;;-3.50;98.60;;;;;;4992383;28;20042;-77
2021/12/31 09:43:24;;;;;;;24.00;11.88;;;-3.40;98.50;;;;;;4992655;28;20030;-81
2021/12/31 09:45:52;;;;;;;28.63;14.98;;;-3.40;98.20;;;;;;4985142;28;20055;-79
2021/12/31 09:48:20;;;;;;;31.65;15.75;;;-3.40;98.40;;;;;;4989703;28;20034;-80
2021/12/31 09:50:50;;;;;;;18.17;9.43;;;-3.40;98.00;;;;;;4980021;28;20021;-79
2021/12/31 09:53:17;;;;;;;27.52;14.40;;;-3.50;97.70;;;;;;4994681;28;20026;-83
2021/12/31 09:55:49;;;;;;;22.42;11.85;;;-3.50;98.00;;;;;;4989772;28;20030;-82
2021/12/31 09:58:16;;;;;;;15.90;8.30;;;-3.50;98.00;;;;;;4983515;28;20054;-81
2021/12/31 10:00:47;;;;;;;33.42;16.70;;;-3.50;97.80;;;;;;4997643;28;20022;-78
2021/12/31 10:03:25;;;;;;;25.33;14.00;;;-3.50;98.00;;;;;;4993051;28;20034;-80
2021/12/31 10:06:21;;;;;;;33.67;16.90;;;-3.50;98.10;;;;;;4992689;28;20030;-80
2021/12/31 10:08:48;;;;;;;30.83;17.70;;;-3.40;98.30;;;;;;4996851;28;20106;-81
2021/12/31 10:11:18;;;;;;;37.17;18.83;;;-3.40;98.30;;;;;;4992959;28;20786;-81
2021/12/31 10:14:01;;;;;;;32.63;16.85;;;-3.30;98.20;;;;;;4993887;28;20054;-80
2021/12/31 10:16:37;;;;;;;30.63;16.27;;;-3.30;98.30;;;;;;4992738;28;20026;-85
2021/12/31 10:19:23;;;;;;;33.90;16.48;;;-3.30;98.00;;;;;;4993044;28;20387;-80
2021/12/31 10:21:51;;;;;;;36.95;18.10;;;-3.30;97.80;;;;;;4995250;28;20030;-80
2021/12/31 10:24:37;;;;;;;32.13;15.75;;;-3.30;98.00;;;;;;4996131;28;20014;-77
2021/12/31 10:27:03;;;;;;;33.15;18.25;;;-3.30;98.20;;;;;;4996323;28;20026;-77
2021/12/31 10:29:29;;;;;;;23.33;13.52;;;-3.20;98.20;;;;;;4996026;28;20037;-78
2021/12/31 10:31:55;;;;;;;29.35;15.07;;;-3.20;97.80;;;;;;4996003;28;20455;-78
2021/12/31 10:34:36;;;;;;;32.33;18.42;;;-3.30;97.90;;;;;;5002897;28;20479;-77
2021/12/31 10:37:17;;;;;;;34.22;17.20;;;-3.20;98.20;;;;;;4976565;28;20027;-79
2021/12/31 10:39:44;;;;;;;23.40;12.40;;;-3.20;98.00;;;;;;4993284;28;20050;-77
2021/12/31 10:42:12;;;;;;;32.42;17.65;;;-3.10;98.10;;;;;;4996074;28;20400;-77
2021/12/31 10:44:43;;;;;;;37.80;14.98;;;-3.10;98.20;;;;;;4996242;28;20040;-79
2021/12/31 10:47:20;;;;;;;32.88;17.02;;;-3.00;98.00;;;;;;4992286;28;20535;-77
2021/12/31 10:50:04;;;;;;;37.85;20.58;;;-3.00;97.90;;;;;;4995790;28;20379;-77
2021/12/31 10:55:33;;;;;;;32.80;18.05;;;-3.00;98.10;;;;;;4993135;28;20031;-77
2021/12/31 10:58:03;;;;;;;33.70;19.35;;;-3.00;97.90;;;;;;4991267;28;20034;-79
2021/12/31 11:00:43;;;;;;;29.95;17.63;;;-3.20;97.70;;;;;;4996776;28;20072;-77
2021/12/31 11:03:10;;;;;;;26.23;15.50;;;-3.20;97.90;;;;;;4986094;28;20023;-79
2021/12/31 11:05:36;;;;;;;35.17;20.42;;;-3.20;98.10;;;;;;5002061;28;20022;-78
2021/12/31 11:08:05;;;;;;;33.15;16.80;;;-3.20;98.00;;;;;;5001639;28;20034;-79
2021/12/31 11:10:36;;;;;;;25.13;14.95;;;-3.20;98.10;;;;;;4999400;28;20025;-79
2021/12/31 11:13:14;;;;;;;36.42;17.55;;;-3.10;98.10;;;;;;4997030;28;20048;-78
2021/12/31 11:15:43;;;;;;;;;;;-3.30;97.90;;;;;;4997269;28;20026;-79
2021/12/31 11:18:11;;;;;;;22.20;12.38;;;-3.30;97.90;;;;;;4992693;28;20728;-79
2021/12/31 11:20:39;;;;;;;38.55;18.90;;;-3.40;97.90;;;;;;4979662;28;20027;-79
2021/12/31 11:23:05;;;;;;;41.40;17.85;;;-3.40;98.00;;;;;;4987229;28;20034;-79
2021/12/31 11:25:31;;;;;;;27.35;16.35;;;-3.50;98.20;;;;;;4993228;28;20031;-78
2021/12/31 11:27:59;;;;;;;35.55;15.75;;;-3.50;98.40;;;;;;4985659;28;20030;-83
2021/12/31 11:30:27;;;;;;;35.70;18.02;;;-3.50;98.60;;;;;;4995760;28;20110;-79
2021/12/31 11:33:00;;;;;;;30.27;13.80;;;-3.40;98.80;;;;;;4990837;28;20093;-78
2021/12/31 11:35:44;;;;;;;25.50;13.73;;;-3.40;98.50;;;;;;4995626;28;20034;-79
2021/12/31 11:38:37;;;;;;;36.83;19.52;;;-3.50;98.60;;;;;;4995220;28;20054;-80
2021/12/31 11:41:04;;;;;;;31.50;17.55;;;-3.40;98.90;;;;;;4995420;28;20069;-79
2021/12/31 11:43:34;;;;;;;41.72;19.08;;;-3.40;98.80;;;;;;4995071;28;20053;-78
2021/12/31 11:46:12;;;;;;;39.08;19.42;;;-3.40;98.70;;;;;;4995213;28;20041;-78
2021/12/31 11:48:47;;;;;;;43.42;19.95;;;-3.30;98.80;;;;;;4995053;28;20022;-78
2021/12/31 11:51:22;;;;;;;37.40;19.52;;;-3.40;98.60;;;;;;4995331;28;20029;-79
2021/12/31 11:53:57;;;;;;;31.45;16.55;;;-3.30;98.80;;;;;;4994914;28;20448;-80
2021/12/31 11:56:45;;;;;;;38.35;18.70;;;-3.30;98.60;;;;;;4995245;28;20029;-80
2021/12/31 11:59:14;;;;;;;34.47;16.50;;;-3.30;98.70;;;;;;4994859;28;20030;-79
2021/12/31 12:01:46;;;;;;;37.75;20.25;;;-3.30;98.70;;;;;;4992186;28;20035;-79
2021/12/31 12:04:28;;;;;;;33.20;18.88;;;-3.30;98.70;;;;;;4985687;28;20388;-79
2021/12/31 12:07:03;;;;;;;41.42;22.58;;;-3.20;98.80;;;;;;4992834;28;20022;-80
2021/12/31 12:09:41;;;;;;;36.88;20.30;;;-3.20;98.80;;;;;;4989963;28;20054;-81
2021/12/31 12:12:08;;;;;;;31.85;20.52;;;-3.20;98.90;;;;;;4994498;28;20030;-80
2021/12/31 12:14:49;;;;;;;46.67;21.80;;;-3.10;98.90;;;;;;4994594;28;20029;-79
2021/12/31 12:17:17;;;;;;;33.65;19.48;;;-3.10;98.70;;;;;;4994326;28;20029;-79
2021/12/31 12:19:51;;;;;;;25.48;14.43;;;-3.10;98.70;;;;;;4993264;28;20125;-80
2021/12/31 12:22:33;;;;;;;41.45;19.35;;;-3.20;98.60;;;;;;4981591;28;20018;-79
2021/12/31 12:25:22;;;;;;;39.72;20.60;;;-3.20;98.60;;;;;;4994118;28;20022;-78
2021/12/31 12:27:59;;;;;;;30.85;16.60;;;-3.30;98.70;;;;;;4989676;28;20022;-79
2021/12/31 12:30:25;;;;;;;23.40;14.15;;;-3.30;98.60;;;;;;4992354;28;20112;-79
2021/12/31 12:35:42;;;;;;;39.50;20.20;;;-3.50;99.00;;;;;;4996154;28;20018;-80
2021/12/31 12:38:12;;;;;;;37.90;20.25;;;-3.50;99.20;;;;;;4993429;28;20665;-79